DeRidder, LA

2:43 AM CST on February 12, 2016 (GMT -0600)
Beauregard Parish | | Change Station
CLOSE
Current Station
Airport
Location: De Ridder,
Elevation: 203 ft
Nearby Weather Stations

Elev 203 ft 30.83 °N, 93.34 °W | Updated 8 minutes ago

Mist
Mist
56 °F
Feels Like 56 °F
N
4
Wind Variable Wind from SW

Today
High -- | Low -- °F
--% Chance of Precip.
Yesterday
High -- | Low -- °F
Precip. -- in
Pressure 30.18 in
Visibility 0.8 miles
Clouds
Dew Point 55 °F
Humidity 96%
Rainfall 0.00 in
Snow Depth Not available.
6:57 AM 5:58 PM
Waxing Crescent, 18% visible
METAR KDRI 120835Z AUTO 22003KT 3/4SM BR 13/13 A3018 RMK AO2 T01330126
Pressure 30.18 in
Visibility 0.8 miles
Clouds
Dew Point 55 °F
Humidity 96%
Rainfall 0.00 in
Snow Depth Not available.
6:57 AM 5:58 PM
Waxing Crescent, 18% visible
METAR KDRI 120835Z AUTO 22003KT 3/4SM BR 13/13 A3018 RMK AO2 T01330126

10-Day Weather Forecast

Almanac

Astronomy

Feb. 12, 2016 Rise Set
Actual Time
Civil Twilight
Nautical Twilight
Astronomical Twilight
Moon
Length of Visible Light
Length of Day
Tomorrow will be .
, % of the Moon is Illuminated

Today's Extremes

State Highs State Lows

Community

WunderPhotos

Upload Photos

1,892,284 photos uploaded!

WunderBlog® & News

Nearby

Air Quality

  Air Quality AQ Index Pollutant
Not available.

Snow Depth

Station Depth Elevation

Earthquake Activity

City Distance Mag. Time & Date
Minimum magnitude displayed is 2.5.

Coastal Water Temperatures

Place Temperature

Stations

Nearby Weather Stations

Station Location Temp. Windchill Dew Point Humidity Wind Precip. Elev Updated Type
                   

Watches & Warnings

There are currently no watches in effect.